createdAt,value
2023-09-06T00:03:06.989Z,96336.44
2023-09-06T00:08:10.030Z,96331.41
2023-09-06T00:13:13.641Z,96328.44
2023-09-06T00:18:15.235Z,96338.91
2023-09-06T00:23:18.599Z,96340.22
2023-09-06T00:28:26.680Z,96337.97
2023-09-06T00:33:31.704Z,96337.78
2023-09-06T00:38:33.528Z,96335.97
2023-09-06T00:43:35.100Z,96336.53
2023-09-06T00:48:38.513Z,96331.97
2023-09-06T00:53:40.796Z,96332.09
2023-09-06T00:58:42.397Z,96327.09
2023-09-06T01:03:44.290Z,96318.22
2023-09-06T01:08:52.921Z,96328.28
2023-09-06T01:13:56.942Z,96327.41
2023-09-06T01:18:59.138Z,96324.50
2023-09-06T01:24:03.547Z,96325.13
2023-09-06T01:29:05.339Z,96319.44
2023-09-06T01:34:06.953Z,96324.41
2023-09-06T01:39:09.457Z,96320.28
2023-09-06T01:44:11.053Z,96318.06
2023-09-06T01:49:12.715Z,96310.28
2023-09-06T01:54:14.356Z,96306.81
2023-09-06T01:59:15.906Z,96314.00
2023-09-06T02:04:17.505Z,96309.78
2023-09-06T02:09:20.541Z,96310.31
2023-09-06T02:14:23.612Z,96305.31
2023-09-06T02:19:25.161Z,96300.28
2023-09-06T02:24:26.857Z,96294.06
2023-09-06T02:29:29.229Z,96289.41
2023-09-06T02:34:30.781Z,96292.28
2023-09-06T02:39:32.957Z,96291.94
2023-09-06T02:44:34.523Z,96296.34
2023-09-06T02:49:36.045Z,96288.47
2023-09-06T02:54:39.129Z,96287.81
2023-09-06T02:59:41.316Z,96284.34
2023-09-06T03:04:42.862Z,96294.72
2023-09-06T03:09:46.115Z,96297.56
2023-09-06T03:14:49.263Z,96299.63
2023-09-06T03:19:54.971Z,96293.50
2023-09-06T03:24:56.672Z,96299.56
2023-09-06T03:29:58.735Z,96293.75
2023-09-06T03:35:01.924Z,96308.13
2023-09-06T03:40:15.896Z,96300.34
2023-09-06T03:45:22.441Z,96303.63
2023-09-06T03:50:25.101Z,96304.16
2023-09-06T03:55:26.682Z,96316.88
2023-09-06T04:00:31.610Z,96314.59
2023-09-06T04:05:46.565Z,96313.91
2023-09-06T04:10:50.355Z,96312.44
2023-09-06T04:15:53.624Z,96310.97
2023-09-06T04:20:55.276Z,96310.72
2023-09-06T04:25:57.456Z,96324.59
2023-09-06T04:31:05.723Z,96321.94
2023-09-06T04:36:12.481Z,96328.72
2023-09-06T04:41:15.741Z,96326.03
2023-09-06T04:46:24.455Z,96335.16
2023-09-06T04:51:28.896Z,96331.72
2023-09-06T04:56:32.832Z,96339.66
2023-09-06T05:01:36.137Z,96335.75
2023-09-06T05:06:38.031Z,96327.09
2023-09-06T05:11:39.891Z,96331.09
2023-09-06T05:16:41.921Z,96344.09
2023-09-06T05:21:43.753Z,96335.50
2023-09-06T05:26:46.355Z,96326.84
2023-09-06T05:31:48.025Z,96322.06
2023-09-06T05:36:49.785Z,96327.19
2023-09-06T05:41:51.918Z,96323.56
2023-09-06T05:46:53.604Z,96331.00
2023-09-06T05:51:57.189Z,96326.97
2023-09-06T05:56:58.915Z,96339.06
2023-09-06T06:02:01.026Z,96344.91
2023-09-06T06:07:02.754Z,96350.72
2023-09-06T06:12:04.906Z,96345.81
2023-09-06T06:17:07.576Z,96348.47
2023-09-06T06:22:10.330Z,96359.41
2023-09-06T06:27:11.973Z,96358.47
2023-09-06T06:32:14.163Z,96365.81
2023-09-06T06:37:15.798Z,96363.66
2023-09-06T06:42:17.367Z,96367.84
2023-09-06T06:47:23.729Z,96362.91
2023-09-06T06:52:25.347Z,96372.97
2023-09-06T06:57:26.982Z,96364.03
2023-09-06T07:02:28.933Z,96376.88
2023-09-06T07:07:30.684Z,96375.03
2023-09-06T07:12:32.258Z,96381.97
2023-09-06T07:17:34.293Z,96387.66
2023-09-06T07:22:35.944Z,96389.81
2023-09-06T07:27:37.479Z,96385.22
2023-09-06T07:32:39.086Z,96391.69
2023-09-06T07:37:42.484Z,96385.84
2023-09-06T07:42:44.044Z,96382.47
2023-09-06T07:47:45.788Z,96387.72
2023-09-06T07:52:47.481Z,96385.88
2023-09-06T07:57:49.124Z,96381.56
2023-09-06T08:02:50.718Z,96382.81
2023-09-06T08:07:52.272Z,96388.03
2023-09-06T08:12:53.905Z,96381.72
2023-09-06T08:17:55.668Z,96385.53
2023-09-06T08:22:57.353Z,96402.63
2023-09-06T08:27:58.887Z,96403.09
2023-09-06T08:33:00.590Z,96406.31
2023-09-06T08:38:02.296Z,96406.31
2023-09-06T08:43:04.780Z,96411.84
2023-09-06T08:48:07.446Z,96411.50
2023-09-06T08:53:11.764Z,96410.38
2023-09-06T08:58:14.071Z,96417.94
2023-09-06T09:03:15.701Z,96425.59
2023-09-06T09:08:17.304Z,96420.44
2023-09-06T09:13:18.948Z,96425.19
2023-09-06T09:18:20.881Z,96427.13
2023-09-06T09:23:23.572Z,96423.84
2023-09-06T09:28:25.585Z,96427.78
2023-09-06T09:33:28.842Z,96422.50
2023-09-06T09:38:32.115Z,96420.75
2023-09-06T09:43:35.044Z,96427.31
2023-09-06T09:48:37.699Z,96423.84
2023-09-06T09:53:41.517Z,96412.78
2023-09-06T09:58:43.482Z,96416.56
2023-09-06T10:03:46.444Z,96416.75
2023-09-06T10:08:49.755Z,96420.06
2023-09-06T10:13:51.541Z,96411.84
2023-09-06T10:18:53.354Z,96402.75
2023-09-06T10:23:55.403Z,96402.91
2023-09-06T10:28:58.364Z,96399.78
2023-09-06T10:34:00.185Z,96400.22
2023-09-06T10:39:05.485Z,96400.69
2023-09-06T10:44:13.114Z,96399.88
2023-09-06T10:49:22.611Z,96389.25
2023-09-06T10:54:26.066Z,96392.91
2023-09-06T10:59:29.102Z,96398.13
2023-09-06T11:04:31.467Z,96389.81
2023-09-06T11:09:34.813Z,96389.44
2023-09-06T11:14:36.400Z,96384.34
2023-09-06T11:19:37.971Z,96384.88
2023-09-06T11:24:39.610Z,96376.09
2023-09-06T11:29:41.199Z,96375.31
2023-09-06T11:34:45.120Z,96369.28
2023-09-06T11:39:47.722Z,96367.53
2023-09-06T11:44:51.758Z,96359.63
2023-09-06T11:49:56.407Z,96358.34
2023-09-06T11:55:03.522Z,96357.56
2023-09-06T12:00:26.728Z,96342.94
2023-09-06T12:05:42.473Z,96343.31
2023-09-06T12:11:06.709Z,96342.03
2023-09-06T12:16:10.266Z,96335.59
2023-09-06T12:21:11.921Z,96323.53
2023-09-06T12:26:14.561Z,96329.56
2023-09-06T12:31:17.954Z,96327.19
2023-09-06T12:36:19.836Z,96312.53
2023-09-06T12:41:21.599Z,96321.06
2023-09-06T12:46:23.233Z,96309.88
2023-09-06T12:51:24.939Z,96302.28
2023-09-06T12:56:31.379Z,96305.19
2023-09-06T13:01:33.262Z,96305.81
2023-09-06T13:06:34.913Z,96302.84
2023-09-06T13:11:36.590Z,96303.41
2023-09-06T13:16:38.176Z,96298.38
2023-09-06T13:21:39.774Z,96303.34
2023-09-06T13:26:41.523Z,96296.25
2023-09-06T13:31:43.400Z,96295.31
2023-09-06T13:36:45.159Z,96286.41
2023-09-06T13:41:48.342Z,96282.13
2023-09-06T13:46:49.985Z,96275.78
2023-09-06T13:51:51.529Z,96274.00
2023-09-06T13:56:53.103Z,96261.25
2023-09-06T14:01:54.824Z,96261.84
2023-09-06T14:06:56.456Z,96253.94
2023-09-06T14:11:58.080Z,96260.13
2023-09-06T14:16:59.735Z,96255.31
2023-09-06T14:22:01.264Z,96252.50
2023-09-06T14:27:04.959Z,96256.91
2023-09-06T14:32:07.286Z,96248.97
2023-09-06T14:37:08.984Z,96248.72
2023-09-06T14:42:10.652Z,96242.03
2023-09-06T14:47:12.790Z,96241.56
2023-09-06T14:52:14.649Z,96243.84
2023-09-06T14:57:17.495Z,96243.03
2023-09-06T15:02:19.117Z,96241.97
2023-09-06T15:07:21.262Z,96242.22
2023-09-06T15:12:23.040Z,96242.97
2023-09-06T15:17:24.737Z,96249.84
2023-09-06T15:22:38.063Z,96239.03
2023-09-06T15:27:41.557Z,96230.25
2023-09-06T15:32:43.669Z,96229.44
2023-09-06T15:38:08.189Z,96227.59
2023-09-06T15:43:10.226Z,96226.53
2023-09-06T15:48:11.958Z,96227.25
2023-09-06T15:53:13.580Z,96223.13
2023-09-06T15:58:15.192Z,96227.41
2023-09-06T16:03:17.092Z,96239.47
2023-09-06T16:08:18.767Z,96238.91
2023-09-06T16:13:20.617Z,96231.69
2023-09-06T16:18:22.148Z,96230.66
2023-09-06T16:23:23.765Z,96221.63
2023-09-06T16:28:26.631Z,96223.19
2023-09-06T16:33:29.143Z,96222.94
2023-09-06T16:38:31.134Z,96223.22
2023-09-06T16:43:33.097Z,96227.31
2023-09-06T16:48:34.942Z,96226.06
2023-09-06T16:53:36.686Z,96232.00
2023-09-06T16:58:38.679Z,96229.72
2023-09-06T17:03:40.781Z,96225.94
2023-09-06T17:08:43.084Z,96224.72
2023-09-06T17:13:44.718Z,96225.06
2023-09-06T17:18:46.368Z,96230.31
2023-09-06T17:24:02.207Z,96237.59
2023-09-06T17:29:08.698Z,96239.69
2023-09-06T17:34:14.257Z,96238.44
2023-09-06T17:39:15.825Z,96237.19
2023-09-06T17:44:17.676Z,96241.50
2023-09-06T17:49:19.489Z,96247.28
2023-09-06T17:54:27.816Z,96244.84
2023-09-06T17:59:30.067Z,96250.34
2023-09-06T18:04:32.053Z,96256.81
2023-09-06T18:09:34.767Z,96258.19
2023-09-06T18:14:36.487Z,96252.84
2023-09-06T18:19:38.139Z,96252.44
2023-09-06T18:24:41.446Z,96254.03
2023-09-06T18:29:43.241Z,96261.53
2023-09-06T18:34:44.859Z,96252.63
2023-09-06T18:39:49.701Z,96260.84
2023-09-06T18:44:51.317Z,96259.09
2023-09-06T18:49:53.149Z,96255.25
2023-09-06T18:54:54.779Z,96273.69
2023-09-06T18:59:56.411Z,96274.19
2023-09-06T19:04:59.069Z,96272.47
2023-09-06T19:10:01.429Z,96281.94
2023-09-06T19:15:05.907Z,96278.66
2023-09-06T19:20:11.128Z,96278.75
2023-09-06T19:25:12.757Z,96276.25
2023-09-06T19:30:14.457Z,96276.84
2023-09-06T19:35:16.213Z,96281.47
2023-09-06T19:40:17.991Z,96287.59
2023-09-06T19:45:20.111Z,96288.91
2023-09-06T19:50:21.816Z,96291.00
2023-09-06T19:55:23.439Z,96291.09
2023-09-06T20:00:25.062Z,96286.06
2023-09-06T20:05:26.852Z,96285.34
2023-09-06T20:10:28.706Z,96283.38
2023-09-06T20:15:30.258Z,96284.97
2023-09-06T20:20:31.862Z,96290.13
2023-09-06T20:25:34.092Z,96276.03
2023-09-06T20:30:40.631Z,96283.50
2023-09-06T20:35:44.433Z,96279.53
2023-09-06T20:40:56.643Z,96281.91
2023-09-06T20:45:58.807Z,96283.00
2023-09-06T20:51:04.287Z,96286.94
2023-09-06T20:56:06.616Z,96276.84
2023-09-06T21:01:15.321Z,96287.09
2023-09-06T21:06:17.003Z,96277.03
2023-09-06T21:11:18.686Z,96284.53
2023-09-06T21:16:20.418Z,96279.25
2023-09-06T21:21:22.334Z,96285.94
2023-09-06T21:26:24.021Z,96281.94
2023-09-06T21:31:27.191Z,96285.81
2023-09-06T21:36:28.869Z,96282.13
2023-09-06T21:41:32.469Z,96294.38
2023-09-06T21:46:34.112Z,96294.69
2023-09-06T21:51:35.771Z,96302.13
2023-09-06T21:56:37.490Z,96301.66
2023-09-06T22:01:39.120Z,96301.19
2023-09-06T22:06:59.251Z,96304.28
2023-09-06T22:12:19.695Z,96308.63
2023-09-06T22:17:21.327Z,96307.72
2023-09-06T22:22:22.989Z,96313.09
2023-09-06T22:27:24.651Z,96314.97
2023-09-06T22:32:26.937Z,96316.03
2023-09-06T22:37:29.200Z,96312.78
2023-09-06T22:42:30.830Z,96322.22
2023-09-06T22:47:32.536Z,96329.91
2023-09-06T22:52:34.402Z,96323.41
2023-09-06T22:57:36.077Z,96332.03
2023-09-06T23:02:37.793Z,96329.06
2023-09-06T23:07:40.196Z,96324.56
2023-09-06T23:12:42.759Z,96329.19
2023-09-06T23:17:45.956Z,96320.66
2023-09-06T23:22:51.188Z,96322.03
2023-09-06T23:27:53.957Z,96313.06
2023-09-06T23:33:01.713Z,96310.88
2023-09-06T23:38:07.471Z,96311.47
2023-09-06T23:43:10.605Z,96307.25
2023-09-06T23:48:12.339Z,96296.72
2023-09-06T23:53:13.950Z,96301.59
2023-09-06T23:58:15.589Z,96288.28
